Time;durP1;ratioP1;P1;durP2;ratioP2;P2;SDS_P1;SDS_P2;PMS_P1;PMS_P2;Temp;Humidity;BMP_temperature;BMP_pressure;BME280_temperature;BME280_humidity;BME280_pressure;Samples;Min_cycle;Max_cycle;Signal;HPM_P1;HPM_P2
2021/12/04 00:00:08;;;;;;;355.52;122.10;;;;;;;8.65;91.33;98921.13;345659;28;1276;-68
2021/12/04 00:00:21;;;;;;;356.67;122.55;;;;;;;8.65;91.60;98930.72;344475;28;1782;-68
2021/12/04 00:00:36;;;;;;;355.92;123.00;;;;;;;8.64;91.35;98921.19;346449;28;2489;-68
2021/12/04 00:00:49;;;;;;;354.17;120.93;;;;;;;8.64;91.43;98913.38;344174;28;1819;-68
2021/12/04 00:01:05;;;;;;;356.15;121.90;;;;;;;8.64;91.25;98916.84;345142;28;999;-68
2021/12/04 00:01:18;;;;;;;356.73;122.03;;;;;;;8.65;91.79;98920.28;344296;28;1255;-68
2021/12/04 00:01:28;;;;;;;355.83;121.93;;;;;;;8.64;91.28;98915.97;345155;28;1522;-68
2021/12/04 00:01:41;;;;;;;353.58;121.75;;;;;;;8.63;91.80;98922.97;345009;28;1313;-68
2021/12/04 00:01:51;;;;;;;354.42;122.00;;;;;;;8.62;91.43;98918.66;343539;28;1421;-68
2021/12/04 00:02:05;;;;;;;353.42;122.10;;;;;;;8.63;91.77;98924.72;345198;28;964;-68
2021/12/04 00:02:16;;;;;;;353.73;121.75;;;;;;;8.64;91.56;98921.19;346598;28;937;-68
2021/12/04 00:02:27;;;;;;;352.40;120.72;;;;;;;8.62;91.82;98926.47;345110;28;1198;-68
2021/12/04 00:02:37;;;;;;;353.40;121.90;;;;;;;8.63;91.93;98922.97;346856;28;1168;-68
2021/12/04 00:02:50;;;;;;;352.37;120.70;;;;;;;8.63;91.29;98919.50;345011;28;1979;-68
2021/12/04 00:03:01;;;;;;;355.17;122.38;;;;;;;8.63;91.25;98922.13;346524;28;1266;-68
2021/12/04 00:03:12;;;;;;;353.67;122.97;;;;;;;8.61;91.71;98922.19;344682;28;1998;-68
2021/12/04 00:03:22;;;;;;;357.35;125.50;;;;;;;8.62;91.53;98928.25;345551;28;2137;-68
2021/12/04 00:03:33;;;;;;;356.17;124.43;;;;;;;8.63;91.52;98929.94;345158;28;971;-68
2021/12/04 00:03:43;;;;;;;354.95;123.22;;;;;;;8.61;91.72;98926.56;345072;28;1846;-68
2021/12/04 00:03:53;;;;;;;351.90;121.97;;;;;;;8.62;91.70;98928.25;344139;28;2114;-68
2021/12/04 00:04:04;;;;;;;353.58;121.88;;;;;;;8.62;91.31;98928.25;343736;28;1959;-68
2021/12/04 00:04:20;;;;;;;353.87;123.40;;;;;;;8.62;91.45;98931.69;343825;28;902;-68
2021/12/04 00:04:33;;;;;;;352.58;121.60;;;;;;;8.61;91.35;98931.75;344742;28;1884;-67
2021/12/04 00:04:47;;;;;;;350.27;117.75;;;;;;;8.61;91.49;98936.97;344495;28;1519;-67
2021/12/04 00:05:00;;;;;;;350.92;117.38;;;;;;;8.59;91.64;98933.59;345102;28;888;-67
2021/12/04 00:05:10;;;;;;;351.17;119.43;;;;;;;8.60;91.54;98935.28;345088;28;1722;-67
2021/12/04 00:05:21;;;;;;;353.63;123.57;;;;;;;8.59;92.31;98937.06;345101;28;2096;-67
2021/12/04 00:05:31;;;;;;;356.63;124.00;;;;;;;8.60;91.56;98938.75;345266;28;972;-67
2021/12/04 00:05:48;;;;;;;359.67;123.83;;;;;;;8.60;91.97;98937.91;342642;28;1952;-67
2021/12/04 00:06:05;;;;;;;354.85;121.78;;;;;;;8.59;91.54;98936.19;343670;28;1761;-67
2021/12/04 00:06:29;;;;;;;349.15;119.20;;;;;;;8.58;92.08;98937.13;343781;28;1311;-67
2021/12/04 00:06:40;;;;;;;353.77;118.45;;;;;;;8.61;91.94;98939.59;343778;28;972;-67
2021/12/04 00:06:51;;;;;;;354.40;120.38;;;;;;;8.60;91.70;98936.13;343751;28;938;-67
2021/12/04 00:07:03;;;;;;;352.75;122.30;;;;;;;8.61;91.84;98936.97;343833;28;995;-67
2021/12/04 00:07:14;;;;;;;349.75;119.95;;;;;;;8.61;92.11;98944.81;343842;28;924;-67
2021/12/04 00:07:24;;;;;;;348.27;119.23;;;;;;;8.60;92.41;98940.50;343465;28;1982;-67
2021/12/04 00:07:37;;;;;;;349.40;120.70;;;;;;;8.60;92.06;98940.50;344399;28;2094;-67
2021/12/04 00:07:47;;;;;;;351.55;120.78;;;;;;;8.58;91.99;98939.72;345604;28;2061;-67
2021/12/04 00:07:58;;;;;;;348.52;118.30;;;;;;;8.59;91.76;98938.81;345096;28;2108;-67
2021/12/04 00:08:08;;;;;;;349.27;116.70;;;;;;;8.58;92.27;98943.19;347131;28;2228;-67
2021/12/04 00:08:18;;;;;;;347.20;115.53;;;;;;;8.58;92.22;98937.97;343859;28;875;-67
2021/12/04 00:08:33;;;;;;;348.17;115.57;;;;;;;8.58;91.98;98937.97;344865;28;1384;-67
2021/12/04 00:08:46;;;;;;;352.63;117.78;;;;;;;8.58;92.36;98939.72;344780;28;2008;-67
2021/12/04 00:09:03;;;;;;;354.10;120.03;;;;;;;8.59;92.10;98938.81;342406;28;1789;-67
2021/12/04 00:09:15;;;;;;;351.75;119.68;;;;;;;8.58;92.04;98937.97;342957;28;1416;-67
2021/12/04 00:09:25;;;;;;;352.67;119.43;;;;;;;8.59;92.07;98941.41;343189;28;1742;-67
2021/12/04 00:09:36;;;;;;;352.15;118.57;;;;;;;8.60;92.41;98937.91;344567;28;1709;-67
2021/12/04 00:09:49;;;;;;;353.17;118.20;;;;;;;8.60;92.08;98940.50;344275;28;902;-67
2021/12/04 00:10:01;;;;;;;350.70;119.45;;;;;;;8.60;92.47;98937.91;343870;28;972;-67
2021/12/04 00:10:20;;;;;;;351.38;121.97;;;;;;;8.61;92.03;98942.19;344748;28;2213;-67
2021/12/04 00:10:31;;;;;;;350.58;122.57;;;;;;;8.62;92.23;98941.28;343811;28;900;-67
2021/12/04 00:10:42;;;;;;;352.08;123.43;;;;;;;8.62;92.20;98943.91;345030;28;1338;-67
2021/12/04 00:10:52;;;;;;;355.13;124.60;;;;;;;8.61;92.23;98945.66;345973;28;1601;-67
2021/12/04 00:11:03;;;;;;;358.17;126.38;;;;;;;8.62;92.68;98941.28;347886;28;1037;-67
2021/12/04 00:11:14;;;;;;;359.98;126.25;;;;;;;8.62;92.13;98946.50;346451;28;2145;-67
2021/12/04 00:11:24;;;;;;;355.80;123.50;;;;;;;8.62;92.16;98946.50;345782;28;2001;-67
2021/12/04 00:11:37;;;;;;;350.43;120.70;;;;;;;8.62;92.33;98943.91;342226;28;1849;-67
2021/12/04 00:12:00;;;;;;;351.58;121.20;;;;;;;8.62;92.08;98943.91;342509;28;1084;-67
2021/12/04 00:12:11;;;;;;;353.10;120.30;;;;;;;8.62;92.57;98949.97;343699;28;1615;-67
2021/12/04 00:12:21;;;;;;;351.77;121.17;;;;;;;8.63;92.26;98950.81;343779;28;1299;-67
2021/12/04 00:12:33;;;;;;;350.35;119.18;;;;;;;8.62;92.41;98943.91;343220;28;2186;-67
2021/12/04 00:12:43;;;;;;;351.55;120.22;;;;;;;8.63;92.22;98950.81;343731;28;1855;-67
2021/12/04 00:12:54;;;;;;;351.02;119.75;;;;;;;8.63;92.13;98942.97;345136;28;2068;-67
2021/12/04 00:13:04;;;;;;;351.67;120.43;;;;;;;8.62;92.45;98946.50;346523;28;1710;-67
2021/12/04 00:13:14;;;;;;;349.23;118.70;;;;;;;8.62;92.46;98949.09;346732;28;837;-67
2021/12/04 00:13:25;;;;;;;350.00;118.33;;;;;;;8.62;92.53;98943.91;347133;28;1197;-67
2021/12/04 00:13:35;;;;;;;350.70;119.03;;;;;;;8.62;92.21;98947.34;346465;28;2246;-67
2021/12/04 00:13:46;;;;;;;352.20;123.43;;;;;;;8.63;92.67;98946.44;345808;28;1716;-68
2021/12/04 00:13:56;;;;;;;351.27;122.57;;;;;;;8.62;92.10;98947.34;345437;28;1803;-68
2021/12/04 00:14:06;;;;;;;348.45;119.60;;;;;;;8.62;92.69;98946.50;343596;28;1326;-68
2021/12/04 00:14:18;;;;;;;347.33;117.50;;;;;;;8.61;92.09;98948.25;344960;28;1176;-68
2021/12/04 00:14:29;;;;;;;346.98;117.88;;;;;;;8.62;92.52;98949.09;344872;28;1992;-68
2021/12/04 00:14:41;;;;;;;350.88;121.03;;;;;;;8.62;92.29;98949.97;347152;28;1809;-68
2021/12/04 00:14:52;;;;;;;350.88;120.80;;;;;;;8.61;92.78;98952.63;344887;28;876;-68
2021/12/04 00:15:03;;;;;;;350.08;119.63;;;;;;;8.59;92.66;98949.25;343785;28;1463;-68
2021/12/04 00:15:13;;;;;;;345.38;117.90;;;;;;;8.60;92.47;98950.94;344764;28;1865;-68
2021/12/04 00:15:24;;;;;;;345.90;118.30;;;;;;;8.59;92.56;98946.63;343895;28;1790;-68
2021/12/04 00:15:34;;;;;;;346.23;116.97;;;;;;;8.59;92.52;98950.09;342377;28;1327;-68
2021/12/04 00:15:45;;;;;;;347.38;118.43;;;;;;;8.57;92.37;98941.47;343526;28;1747;-68
2021/12/04 00:15:55;;;;;;;350.10;119.30;;;;;;;8.56;92.71;98947.63;346518;28;808;-68
2021/12/04 00:16:05;;;;;;;352.83;121.15;;;;;;;8.56;92.47;98950.22;343877;28;1392;-68
2021/12/04 00:16:16;;;;;;;353.80;120.33;;;;;;;8.56;92.65;98950.22;345218;28;943;-68
2021/12/04 00:16:26;;;;;;;352.40;119.60;;;;;;;8.54;92.42;98949.44;343797;28;878;-68
2021/12/04 00:16:36;;;;;;;349.77;119.45;;;;;;;8.55;92.86;98945.91;342442;28;2105;-68
2021/12/04 00:16:47;;;;;;;349.53;120.23;;;;;;;8.52;92.59;98946.06;342526;28;924;-68
2021/12/04 00:16:57;;;;;;;350.13;120.05;;;;;;;8.53;92.78;98946.91;343729;28;2114;-68
2021/12/04 00:17:08;;;;;;;353.60;119.23;;;;;;;8.53;92.81;98946.91;345196;28;2233;-68
2021/12/04 00:17:18;;;;;;;352.63;118.38;;;;;;;8.51;92.69;98948.72;346675;28;950;-68
2021/12/04 00:17:29;;;;;;;352.80;119.33;;;;;;;8.51;92.79;98946.13;346438;28;1459;-68
2021/12/04 00:17:39;;;;;;;350.77;119.07;;;;;;;8.50;92.82;98949.63;344677;28;1843;-68
2021/12/04 00:17:50;;;;;;;349.57;119.40;;;;;;;8.48;92.44;98943.63;344749;28;1750;-68
2021/12/04 00:18:00;;;;;;;347.70;119.63;;;;;;;8.49;92.57;98950.56;343772;28;1232;-68
2021/12/04 00:18:11;;;;;;;344.70;116.97;;;;;;;8.48;92.73;98947.09;343807;28;2027;-68
2021/12/04 00:18:22;;;;;;;343.98;116.20;;;;;;;8.48;92.63;98948.84;343785;28;1224;-68
2021/12/04 00:18:33;;;;;;;343.02;115.45;;;;;;;8.45;92.46;98944.63;343802;28;885;-68
2021/12/04 00:18:43;;;;;;;344.50;117.50;;;;;;;8.45;92.70;98946.38;346045;28;2214;-68
2021/12/04 00:18:53;;;;;;;346.60;117.53;;;;;;;8.46;92.27;98948.91;346440;28;836;-68
2021/12/04 00:19:04;;;;;;;349.40;116.47;;;;;;;8.47;92.52;98952.38;344789;28;2111;-68
2021/12/04 00:19:14;;;;;;;350.27;116.97;;;;;;;8.48;92.46;98946.25;344189;28;2004;-68
2021/12/04 00:19:25;;;;;;;350.40;116.78;;;;;;;8.48;92.43;98946.25;343833;28;869;-67
2021/12/04 00:19:35;;;;;;;348.27;117.43;;;;;;;8.49;92.47;98945.34;342264;28;1293;-67
2021/12/04 00:19:45;;;;;;;348.10;118.25;;;;;;;8.49;92.87;98954.00;343737;28;1223;-67
2021/12/04 00:19:56;;;;;;;349.40;120.83;;;;;;;8.50;92.59;98947.03;345657;28;1215;-67
2021/12/04 00:20:08;;;;;;;349.80;120.82;;;;;;;8.51;92.36;98953.94;343936;28;1597;-67
2021/12/04 00:20:18;;;;;;;346.80;118.28;;;;;;;8.50;92.19;98945.28;342401;28;2873;-67
2021/12/04 00:20:30;;;;;;;346.80;117.93;;;;;;;8.50;92.68;98950.47;342445;28;1841;-67
2021/12/04 00:20:41;;;;;;;347.40;117.28;;;;;;;8.51;92.40;98951.34;343644;28;1546;-67
2021/12/04 00:20:52;;;;;;;347.80;117.03;;;;;;;8.51;92.50;98951.34;342495;28;1277;-67
2021/12/04 00:21:02;;;;;;;348.00;116.87;;;;;;;8.51;92.88;98946.13;343758;28;1040;-67
2021/12/04 00:21:12;;;;;;;345.77;116.53;;;;;;;8.52;92.43;98945.19;343780;28;906;-67
2021/12/04 00:21:23;;;;;;;345.98;117.15;;;;;;;8.54;92.29;98951.19;342930;28;889;-67
2021/12/04 00:21:33;;;;;;;343.63;116.23;;;;;;;8.54;92.40;98948.59;345136;28;944;-67
2021/12/04 00:21:44;;;;;;;345.13;117.50;;;;;;;8.53;92.77;98944.28;345082;28;945;-67
2021/12/04 00:21:54;;;;;;;344.47;116.83;;;;;;;8.51;92.57;98943.50;344327;28;2036;-67
2021/12/04 00:22:05;;;;;;;347.42;116.22;;;;;;;8.50;92.69;98949.63;341207;29;1046;-67
2021/12/04 00:22:15;;;;;;;348.40;114.70;;;;;;;8.50;92.23;98945.28;341443;28;875;-67
2021/12/04 00:22:25;;;;;;;350.15;115.90;;;;;;;8.50;92.12;98949.63;341654;28;1677;-67
2021/12/04 00:22:36;;;;;;;349.20;116.33;;;;;;;8.50;92.30;98947.03;342356;28;1971;-67
2021/12/04 00:22:46;;;;;;;347.85;116.65;;;;;;;8.50;92.32;98944.41;344931;28;1968;-67
2021/12/04 00:22:59;;;;;;;347.67;115.73;;;;;;;8.52;91.99;98947.81;346397;28;2086;-67
2021/12/04 00:23:09;;;;;;;346.92;117.80;;;;;;;8.53;92.10;98949.50;346472;28;1743;-67
2021/12/04 00:23:20;;;;;;;347.07;119.27;;;;;;;8.53;92.15;98942.53;345220;28;892;-67
2021/12/04 00:23:30;;;;;;;346.92;118.70;;;;;;;8.56;92.21;98949.38;341300;29;889;-67
2021/12/04 00:23:40;;;;;;;346.53;116.07;;;;;;;8.55;92.48;98947.69;342809;28;2059;-67
2021/12/04 00:23:51;;;;;;;346.48;115.63;;;;;;;8.55;92.25;98947.69;342546;28;861;-67
2021/12/04 00:24:01;;;;;;;346.93;116.17;;;;;;;8.55;92.45;98948.53;343864;28;1192;-67
2021/12/04 00:24:12;;;;;;;348.60;117.33;;;;;;;8.56;91.91;98947.63;344553;28;2108;-67
2021/12/04 00:24:22;;;;;;;348.93;117.97;;;;;;;8.56;92.32;98944.16;345116;28;1462;-67
2021/12/04 00:24:33;;;;;;;349.73;117.88;;;;;;;8.58;91.81;98947.53;347963;28;873;-67
2021/12/04 00:24:43;;;;;;;348.63;117.53;;;;;;;8.58;92.14;98942.34;347783;28;1463;-67
2021/12/04 00:24:53;;;;;;;348.75;117.05;;;;;;;8.57;91.90;98948.47;346384;28;1701;-67
2021/12/04 00:25:05;;;;;;;347.63;116.47;;;;;;;8.56;92.03;98944.16;346538;28;892;-67
2021/12/04 00:25:15;;;;;;;347.73;116.72;;;;;;;8.56;92.21;98944.16;343842;28;964;-67
2021/12/04 00:25:27;;;;;;;349.53;117.10;;;;;;;8.55;92.35;98947.69;342889;28;1888;-67
2021/12/04 00:25:40;;;;;;;347.42;117.25;;;;;;;8.55;92.48;98947.69;344348;28;1468;-67
2021/12/04 00:25:50;;;;;;;347.27;118.18;;;;;;;8.54;92.07;98940.78;343769;28;944;-67
2021/12/04 00:26:01;;;;;;;347.00;119.07;;;;;;;8.55;92.63;98943.31;342387;28;2172;-67
2021/12/04 00:26:11;;;;;;;344.30;117.80;;;;;;;8.57;92.03;98938.03;343935;28;896;-67
2021/12/04 00:26:21;;;;;;;344.17;116.47;;;;;;;8.57;92.45;98945.84;345070;28;1183;-67
2021/12/04 00:26:32;;;;;;;343.15;114.60;;;;;;;8.57;92.08;98945.84;346546;28;822;-67
2021/12/04 00:26:42;;;;;;;345.30;115.83;;;;;;;8.58;92.05;98943.19;346426;28;1717;-67
2021/12/04 00:26:53;;;;;;;346.67;115.93;;;;;;;8.59;92.19;98944.03;344714;28;1487;-67
2021/12/04 00:27:04;;;;;;;347.08;115.22;;;;;;;8.60;92.47;98945.72;343565;28;1810;-67
2021/12/04 00:27:14;;;;;;;346.13;114.07;;;;;;;8.59;92.07;98949.25;346265;28;1767;-67
2021/12/04 00:27:25;;;;;;;347.48;115.68;;;;;;;8.59;92.21;98949.25;345854;28;1997;-67
2021/12/04 00:27:35;;;;;;;346.33;115.67;;;;;;;8.58;92.39;98950.16;345031;28;1858;-67
2021/12/04 00:27:46;;;;;;;345.15;114.38;;;;;;;8.58;92.31;98943.19;343647;28;1746;-67
2021/12/04 00:27:56;;;;;;;343.83;112.77;;;;;;;8.58;92.33;98942.34;342962;28;970;-67
2021/12/04 00:28:07;;;;;;;343.92;113.38;;;;;;;8.57;92.04;98944.09;343850;28;2099;-67
2021/12/04 00:28:17;;;;;;;343.93;114.93;;;;;;;8.57;92.49;98946.69;345141;28;1339;-67
2021/12/04 00:28:27;;;;;;;344.75;115.53;;;;;;;8.57;91.80;98946.69;344724;28;2102;-67
2021/12/04 00:28:38;;;;;;;345.87;115.90;;;;;;;8.58;92.20;98950.16;343505;28;1752;-67
2021/12/04 00:28:49;;;;;;;345.48;115.32;;;;;;;8.58;91.95;98947.53;343784;28;1561;-67
2021/12/04 00:28:59;;;;;;;343.23;113.90;;;;;;;8.59;92.10;98946.63;343655;28;2066;-67
2021/12/04 00:29:10;;;;;;;341.60;112.47;;;;;;;8.59;92.18;98944.88;343864;28;1873;-67
2021/12/04 00:29:22;;;;;;;342.84;112.52;;;;;;;8.57;91.81;98941.47;344074;28;1284;-67
2021/12/04 00:29:32;;;;;;;344.48;114.03;;;;;;;8.57;91.95;98948.47;345114;28;974;-67
2021/12/04 00:29:43;;;;;;;345.63;116.23;;;;;;;8.57;91.94;98956.28;342739;28;1536;-67
2021/12/04 00:29:53;;;;;;;344.60;116.47;;;;;;;8.55;92.22;98943.31;343232;28;2009;-67
2021/12/04 00:30:04;;;;;;;344.73;119.33;;;;;;;8.56;91.87;98954.59;345172;28;859;-67
2021/12/04 00:30:14;;;;;;;344.98;118.03;;;;;;;8.56;92.22;98950.22;346244;28;1708;-67
2021/12/04 00:30:26;;;;;;;346.70;118.30;;;;;;;8.56;91.84;98954.59;345548;28;1455;-67
2021/12/04 00:30:37;;;;;;;344.75;114.25;;;;;;;8.57;92.15;98945.84;345467;28;929;-67
2021/12/04 00:30:49;;;;;;;345.10;114.63;;;;;;;8.57;91.47;98956.28;344881;28;875;-67
2021/12/04 00:31:04;;;;;;;341.98;111.30;;;;;;;8.58;91.85;98947.53;344918;28;1449;-67
2021/12/04 00:31:15;;;;;;;343.05;111.93;;;;;;;8.58;92.12;98953.59;347694;28;1494;-68
2021/12/04 00:31:26;;;;;;;343.80;110.47;;;;;;;8.58;91.99;98947.53;346363;28;1458;-68
2021/12/04 00:31:37;;;;;;;343.08;110.93;;;;;;;8.57;91.77;98945.84;344734;28;2051;-68
2021/12/04 00:31:55;;;;;;;341.67;112.22;;;;;;;8.54;92.15;98940.78;345050;28;1489;-68
2021/12/04 00:32:12;;;;;;;341.02;112.50;;;;;;;8.56;91.80;98946.75;344092;28;1992;-67
2021/12/04 00:32:33;;;;;;;345.17;116.90;;;;;;;8.57;91.73;98940.63;345747;28;2343;-67
2021/12/04 00:32:53;;;;;;;350.22;118.36;;;;;;;8.59;92.14;98944.03;343645;28;1805;-68
2021/12/04 00:33:22;;;;;;;349.33;117.45;;;;;;;8.57;92.06;98944.09;345226;28;897;-67
2021/12/04 00:33:35;;;;;;;343.27;114.85;;;;;;;8.58;92.02;98944.94;345078;28;999;-68
2021/12/04 00:33:46;;;;;;;343.50;115.05;;;;;;;8.56;91.94;98942.41;346226;28;1775;-68
2021/12/04 00:33:56;;;;;;;345.30;114.93;;;;;;;8.56;91.95;98945.00;344424;28;2024;-68
2021/12/04 00:34:07;;;;;;;345.07;114.40;;;;;;;8.56;92.07;98944.16;343668;28;3614;-68
2021/12/04 00:34:19;;;;;;;344.30;113.10;;;;;;;8.55;91.78;98948.53;343640;28;1427;-68
2021/12/04 00:34:32;;;;;;;342.80;113.57;;;;;;;8.56;92.12;98944.16;344632;28;1830;-68
2021/12/04 00:34:46;;;;;;;343.08;114.32;;;;;;;8.57;91.67;98940.63;342792;28;773;-68
2021/12/04 00:35:14;;;;;;;342.27;114.85;;;;;;;8.55;92.02;98937.25;342350;28;1545;-68
2021/12/04 00:35:44;;;;;;;342.00;113.47;;;;;;;8.58;91.74;98944.94;343593;28;1563;-68
2021/12/04 00:36:50;;;;;;;346.42;116.35;;;;;;;8.60;91.74;98940.50;343768;28;971;-68
2021/12/04 00:37:47;;;;;;;347.95;118.28;;;;;;;8.59;91.66;98939.66;343763;28;793;-68
2021/12/04 00:49:16;;;;;;;342.00;116.85;;;;;;;8.65;91.24;98959.41;344845;28;1787;-69
2021/12/04 00:49:27;;;;;;;342.40;116.75;;;;;;;8.64;91.01;98958.56;343732;28;1772;-69
2021/12/04 00:49:37;;;;;;;342.15;116.85;;;;;;;8.64;90.98;98955.97;344586;28;1108;-69
2021/12/04 00:49:47;;;;;;;342.70;117.40;;;;;;;8.66;90.81;98964.53;344528;28;1477;-69
2021/12/04 00:49:58;;;;;;;340.95;117.43;;;;;;;8.65;91.29;98959.41;344999;28;1292;-69
2021/12/04 00:50:09;;;;;;;341.37;116.13;;;;;;;8.65;91.54;98959.41;345062;28;2108;-69
2021/12/04 00:50:19;;;;;;;340.65;115.65;;;;;;;8.66;91.40;98963.72;343883;28;2459;-69
2021/12/04 00:50:29;;;;;;;339.70;114.35;;;;;;;8.67;91.50;98957.56;344874;28;1014;-69
2021/12/04 00:50:40;;;;;;;339.97;112.80;;;;;;;8.64;90.67;98955.97;345156;28;2062;-69
2021/12/04 00:50:50;;;;;;;339.13;111.97;;;;;;;8.67;91.21;98963.63;345232;28;1449;-69
2021/12/04 00:51:01;;;;;;;336.53;109.63;;;;;;;8.67;90.82;98962.78;344900;28;1268;-69
2021/12/04 00:51:11;;;;;;;336.65;110.40;;;;;;;8.67;91.07;98954.94;343031;28;971;-69
2021/12/04 00:51:24;;;;;;;337.97;111.23;;;;;;;8.65;90.83;98959.41;343676;28;1467;-69
2021/12/04 00:51:35;;;;;;;341.12;114.40;;;;;;;8.63;90.99;98962.09;343675;28;908;-69
2021/12/04 00:51:53;;;;;;;342.02;114.68;;;;;;;8.61;91.44;98952.63;344847;28;1803;-69
2021/12/04 00:52:04;;;;;;;341.65;115.70;;;;;;;8.62;91.09;98962.16;343818;28;1458;-69
2021/12/04 00:52:14;;;;;;;342.40;117.27;;;;;;;8.62;91.18;98951.72;347527;28;1974;-69
2021/12/04 00:52:25;;;;;;;341.23;116.72;;;;;;;8.62;91.19;98951.72;344737;28;2056;-69
2021/12/04 00:52:35;;;;;;;342.17;117.00;;;;;;;8.61;91.20;98944.81;343948;28;963;-69
2021/12/04 00:52:45;;;;;;;344.07;116.97;;;;;;;8.62;90.74;98947.34;345003;28;1198;-69
2021/12/04 00:52:56;;;;;;;344.30;115.85;;;;;;;8.61;90.81;98943.03;344603;28;1992;-69
2021/12/04 00:53:07;;;;;;;342.70;113.47;;;;;;;8.62;91.03;98949.97;346523;28;948;-69
2021/12/04 00:53:17;;;;;;;342.20;112.17;;;;;;;8.62;90.78;98946.50;346420;28;1619;-66
2021/12/04 00:53:27;;;;;;;344.00;112.38;;;;;;;8.60;90.64;98945.72;346194;28;2358;-67
2021/12/04 00:53:38;;;;;;;343.27;113.27;;;;;;;8.59;90.81;98946.63;344810;28;1807;-67
2021/12/04 00:53:49;;;;;;;340.88;113.13;;;;;;;8.59;91.10;98954.47;345150;28;1210;-67
2021/12/04 00:53:59;;;;;;;339.25;113.47;;;;;;;8.56;91.21;98945.00;346339;28;2011;-67
2021/12/04 00:54:10;;;;;;;341.90;114.17;;;;;;;8.58;91.41;98944.94;345971;28;1870;-67
2021/12/04 00:54:25;;;;;;;341.10;114.78;;;;;;;8.60;91.00;98943.13;343863;28;1252;-67
2021/12/04 00:54:37;;;;;;;342.83;116.05;;;;;;;8.59;90.99;98944.03;343623;28;2153;-67
2021/12/04 00:54:47;;;;;;;339.27;113.65;;;;;;;8.57;90.87;98944.09;343772;28;1501;-67
2021/12/04 00:54:58;;;;;;;337.70;112.10;;;;;;;8.58;91.36;98942.34;343756;28;2204;-67
2021/12/04 00:55:08;;;;;;;339.08;111.05;;;;;;;8.58;90.97;98942.34;344000;28;1812;-67
2021/12/04 00:55:19;;;;;;;342.83;112.23;;;;;;;8.59;90.84;98944.88;342462;28;1189;-67
2021/12/04 00:55:29;;;;;;;343.60;112.23;;;;;;;8.60;90.66;98940.50;346416;28;2233;-67
2021/12/04 00:55:39;;;;;;;342.53;113.40;;;;;;;8.61;91.09;98942.19;345487;28;890;-67
2021/12/04 00:55:50;;;;;;;342.33;114.63;;;;;;;8.62;91.07;98938.69;345088;28;852;-67
2021/12/04 00:56:00;;;;;;;341.77;112.80;;;;;;;8.62;90.78;98943.91;344966;28;1143;-67
2021/12/04 00:56:11;;;;;;;341.02;111.45;;;;;;;8.61;90.52;98945.66;345070;28;1707;-67
2021/12/04 00:56:22;;;;;;;341.13;111.30;;;;;;;8.62;90.97;98949.09;346453;28;1581;-67
2021/12/04 00:56:33;;;;;;;342.95;114.18;;;;;;;8.61;90.62;98947.41;343569;28;2028;-67
2021/12/04 00:56:43;;;;;;;342.52;114.25;;;;;;;8.62;90.63;98949.09;347156;28;1961;-67
2021/12/04 00:56:55;;;;;;;342.27;115.00;;;;;;;8.63;90.34;98945.59;347385;28;2056;-67
2021/12/04 00:57:05;;;;;;;341.85;115.35;;;;;;;8.63;90.52;98948.19;343863;28;895;-67
2021/12/04 00:57:16;;;;;;;342.60;115.63;;;;;;;8.63;90.50;98949.03;346335;28;1990;-67
2021/12/04 00:57:26;;;;;;;341.83;115.28;;;;;;;8.64;90.36;98957.72;343040;28;2052;-67
2021/12/04 00:57:38;;;;;;;341.33;114.57;;;;;;;8.62;90.65;98954.31;343809;28;984;-67
2021/12/04 00:57:48;;;;;;;339.65;113.10;;;;;;;8.61;90.61;98955.25;345122;28;1385;-67
2021/12/04 00:57:59;;;;;;;339.63;112.83;;;;;;;8.63;90.33;98954.25;344558;28;1702;-69
2021/12/04 00:58:09;;;;;;;341.90;113.38;;;;;;;8.63;90.51;98956.03;344817;28;1553;-69
2021/12/04 00:58:19;;;;;;;343.97;115.17;;;;;;;8.60;90.50;98953.53;345108;28;1222;-69
2021/12/04 00:58:30;;;;;;;343.50;115.20;;;;;;;8.60;90.48;98956.16;343066;28;1781;-69
2021/12/04 00:58:40;;;;;;;341.53;116.17;;;;;;;8.61;90.58;98952.63;343335;28;2174;-69
2021/12/04 00:58:51;;;;;;;341.02;116.20;;;;;;;8.62;90.83;98964.75;344228;28;1303;-69
2021/12/04 00:59:01;;;;;;;341.50;116.50;;;;;;;8.63;90.50;98963.84;343691;28;970;-69
2021/12/04 00:59:12;;;;;;;341.45;115.65;;;;;;;8.62;90.57;98960.38;343897;28;1958;-69
2021/12/04 00:59:22;;;;;;;340.77;116.30;;;;;;;8.63;90.74;98963.84;343867;28;967;-69
2021/12/04 00:59:33;;;;;;;341.02;116.43;;;;;;;8.62;90.90;98960.38;342320;28;1813;-69
2021/12/04 00:59:43;;;;;;;338.60;114.60;;;;;;;8.62;90.44;98964.75;343651;28;1329;-69
2021/12/04 00:59:53;;;;;;;338.98;114.65;;;;;;;8.63;90.99;98963.84;343486;28;1053;-69
2021/12/04 01:00:06;;;;;;;341.50;116.27;;;;;;;8.64;90.60;98962.94;343760;28;896;-69
2021/12/04 01:00:16;;;;;;;343.52;116.63;;;;;;;8.62;90.62;98959.53;345245;28;1842;-69
2021/12/04 01:00:27;;;;;;;345.03;116.47;;;;;;;8.62;90.86;98962.16;346299;28;1988;-69
2021/12/04 01:00:39;;;;;;;343.75;115.72;;;;;;;8.63;91.01;98961.25;344974;28;1593;-69
2021/12/04 01:00:49;;;;;;;343.10;116.30;;;;;;;8.64;91.13;98966.38;342518;28;998;-69
2021/12/04 01:00:59;;;;;;;339.30;115.80;;;;;;;8.63;90.63;98961.25;343222;28;1086;-69
2021/12/04 01:01:10;;;;;;;339.40;114.75;;;;;;;8.63;90.88;98959.47;343539;28;868;-69
2021/12/04 01:01:20;;;;;;;339.40;114.47;;;;;;;8.64;90.57;98957.72;343887;28;950;-69
2021/12/04 01:01:31;;;;;;;342.27;115.33;;;;;;;8.64;90.98;98955.97;344365;28;1871;-69
2021/12/04 01:01:41;;;;;;;343.20;114.50;;;;;;;8.63;91.07;98958.63;344716;28;2415;-68
2021/12/04 01:01:52;;;;;;;344.00;114.72;;;;;;;8.63;90.58;98958.63;345116;28;916;-68
2021/12/04 01:02:02;;;;;;;342.73;114.57;;;;;;;8.64;91.25;98962.94;345090;28;2182;-68
2021/12/04 01:02:13;;;;;;;340.63;114.40;;;;;;;8.62;90.64;98954.31;345504;28;1824;-68
2021/12/04 01:02:23;;;;;;;340.13;113.03;;;;;;;8.63;91.09;98953.41;344974;28;1887;-68
2021/12/04 01:02:34;;;;;;;339.42;112.00;;;;;;;8.63;90.91;98959.47;345169;28;1130;-68
2021/12/04 01:02:44;;;;;;;340.20;112.57;;;;;;;8.63;90.83;98954.25;344031;28;865;-68
2021/12/04 01:02:54;;;;;;;341.45;114.57;;;;;;;8.61;90.65;98953.47;344554;28;2358;-68
2021/12/04 01:03:06;;;;;;;341.93;115.57;;;;;;;8.61;90.64;98948.25;341328;29;782;-68
2021/12/04 01:03:16;;;;;;;342.63;117.13;;;;;;;8.62;90.50;98952.56;346928;28;2468;-68
2021/12/04 01:03:27;;;;;;;341.97;115.87;;;;;;;8.63;91.07;98956.03;348510;28;1387;-67
2021/12/04 01:03:37;;;;;;;341.42;116.55;;;;;;;8.64;90.86;98952.50;348021;28;950;-66
2021/12/04 01:03:47;;;;;;;341.23;115.67;;;;;;;8.63;90.65;98950.81;345173;28;1852;-67
2021/12/04 01:03:58;;;;;;;341.40;116.68;;;;;;;8.62;90.54;98947.34;345800;28;1634;-67
2021/12/04 01:04:10;;;;;;;341.47;115.50;;;;;;;8.63;90.56;98953.41;343942;28;1547;-67
2021/12/04 01:04:22;;;;;;;339.63;114.70;;;;;;;8.62;90.42;98955.19;345487;28;949;-67
2021/12/04 01:04:32;;;;;;;339.48;113.63;;;;;;;8.63;90.44;98956.03;343749;28;1845;-67
2021/12/04 01:04:43;;;;;;;339.93;113.53;;;;;;;8.63;90.52;98956.03;345879;28;1927;-67
2021/12/04 01:04:53;;;;;;;340.70;114.20;;;;;;;8.63;90.85;98958.63;345467;28;868;-67
2021/12/04 01:05:04;;;;;;;341.30;115.55;;;;;;;8.64;90.99;98957.72;344015;28;1031;-67
2021/12/04 01:05:14;;;;;;;342.00;116.97;;;;;;;8.63;90.46;98951.66;345845;28;2065;-67
2021/12/04 01:05:25;;;;;;;339.77;115.63;;;;;;;8.64;90.58;98952.50;343982;28;1998;-67
2021/12/04 01:05:35;;;;;;;337.77;114.57;;;;;;;8.65;90.93;98954.19;343936;28;1638;-67
2021/12/04 01:05:45;;;;;;;337.25;112.85;;;;;;;8.66;90.40;98958.50;344722;28;1764;-67
2021/12/04 01:05:56;;;;;;;339.17;113.70;;;;;;;8.65;90.44;98949.81;344101;28;844;-67
2021/12/04 01:06:06;;;;;;;342.95;113.53;;;;;;;8.67;90.79;98955.78;345263;28;1219;-67
2021/12/04 01:06:17;;;;;;;343.60;115.17;;;;;;;8.68;90.86;98954.03;346940;28;2054;-67